Time;durP1;ratioP1;P1;durP2;ratioP2;P2;SDS_P1;SDS_P2;PMS_P1;PMS_P2;Temp;Humidity;BMP_temperature;BMP_pressure;BME280_temperature;BME280_humidity;BME280_pressure;Samples;Min_cycle;Max_cycle;Signal;HPM_P1;HPM_P2
2022/08/21 00:02:15;;;;;;;3.10;2.90;;;17.30;99.90;;;;;;5072033;28;20218;-66
2022/08/21 00:04:44;;;;;;;3.65;3.33;;;17.20;99.90;;;;;;5072006;28;20187;-67
2022/08/21 00:07:25;;;;;;;5.05;4.20;;;17.20;99.90;;;;;;5073420;28;20195;-67
2022/08/21 00:09:54;;;;;;;5.90;4.28;;;17.20;99.90;;;;;;5070089;28;20540;-66
2022/08/21 00:12:23;;;;;;;5.05;4.03;;;17.20;99.90;;;;;;5060437;28;20203;-66
2022/08/21 00:14:53;;;;;;;7.65;4.03;;;17.20;99.90;;;;;;5055864;28;20563;-67
2022/08/21 00:17:26;;;;;;;4.60;3.63;;;17.10;99.90;;;;;;5055607;28;20223;-67
2022/08/21 00:19:54;;;;;;;4.18;3.67;;;17.10;99.90;;;;;;5056243;28;20616;-71
2022/08/21 00:22:23;;;;;;;5.05;3.95;;;17.10;99.90;;;;;;5055485;28;20760;-68
2022/08/21 00:24:52;;;;;;;5.88;4.00;;;17.00;99.90;;;;;;5055621;28;20658;-67
2022/08/21 00:27:20;;;;;;;5.47;4.28;;;17.00;99.90;;;;;;5055479;28;20200;-68
2022/08/21 00:29:49;;;;;;;7.40;4.72;;;17.00;99.90;;;;;;5060639;28;20192;-69
2022/08/21 00:32:22;;;;;;;5.82;4.40;;;17.00;99.90;;;;;;5055519;28;20545;-67
2022/08/21 00:34:51;;;;;;;8.23;4.20;;;17.00;99.90;;;;;;5055087;28;20188;-67
2022/08/21 00:37:21;;;;;;;5.45;4.15;;;16.90;99.90;;;;;;5055124;28;20646;-69
2022/08/21 00:39:51;;;;;;;3.70;3.40;;;16.90;99.90;;;;;;5055777;28;20584;-66
2022/08/21 00:42:20;;;;;;;4.15;3.70;;;16.90;99.90;;;;;;5054578;28;20674;-68
2022/08/21 00:44:50;;;;;;;3.75;3.35;;;16.90;99.90;;;;;;5065821;28;20509;-69
2022/08/21 00:47:20;;;;;;;3.58;3.17;;;16.90;99.90;;;;;;5068203;28;20207;-68
2022/08/21 00:49:50;;;;;;;3.53;3.22;;;16.90;99.90;;;;;;5073547;28;20199;-69
2022/08/21 00:52:25;;;;;;;4.00;3.30;;;16.80;99.90;;;;;;5075239;28;20183;-67
2022/08/21 00:54:55;;;;;;;3.92;3.55;;;16.80;99.90;;;;;;5072862;28;20205;-67
2022/08/21 00:57:29;;;;;;;5.05;3.80;;;16.80;99.90;;;;;;5061305;28;20195;-68
2022/08/21 01:00:01;;;;;;;3.72;3.42;;;16.80;99.90;;;;;;5070489;28;20222;-67
2022/08/21 01:02:30;;;;;;;5.90;3.90;;;16.80;99.90;;;;;;5073322;28;20199;-65
2022/08/21 01:05:00;;;;;;;6.53;3.42;;;16.80;99.90;;;;;;5074952;28;20191;-67
2022/08/21 01:07:30;;;;;;;3.63;3.15;;;16.80;99.90;;;;;;5070859;28;20199;-67
2022/08/21 01:09:59;;;;;;;4.75;3.55;;;16.80;99.90;;;;;;5074809;28;20187;-68
2022/08/21 01:12:28;;;;;;;3.83;3.30;;;16.80;99.90;;;;;;5073257;28;20573;-67
2022/08/21 01:14:57;;;;;;;4.55;3.58;;;16.80;99.90;;;;;;5074872;28;20195;-67
2022/08/21 01:17:28;;;;;;;4.18;3.78;;;16.80;99.90;;;;;;5069674;28;20215;-67
2022/08/21 01:20:00;;;;;;;4.05;3.35;;;16.80;99.90;;;;;;5073477;28;20234;-68
2022/08/21 01:22:30;;;;;;;4.32;3.78;;;16.80;99.90;;;;;;5071944;28;20563;-68
2022/08/21 01:24:58;;;;;;;3.83;3.53;;;16.70;99.90;;;;;;5074416;28;20210;-66
2022/08/21 01:27:27;;;;;;;3.67;3.38;;;16.70;99.90;;;;;;5072649;28;20718;-67
2022/08/21 01:30:01;;;;;;;3.90;3.50;;;16.60;99.90;;;;;;5074405;28;20204;-70
2022/08/21 01:32:34;;;;;;;4.82;3.97;;;16.60;99.90;;;;;;5072157;28;20214;-71
2022/08/21 01:35:04;;;;;;;3.83;3.47;;;16.60;99.90;;;;;;5074437;28;20195;-69
2022/08/21 01:37:35;;;;;;;4.00;3.70;;;16.60;99.90;;;;;;5074438;28;20179;-70
2022/08/21 01:40:05;;;;;;;4.88;4.10;;;16.60;99.90;;;;;;5074282;28;20592;-69
2022/08/21 01:42:35;;;;;;;3.85;3.40;;;16.60;99.90;;;;;;5072660;28;20197;-68
2022/08/21 01:45:05;;;;;;;3.90;3.47;;;16.60;99.90;;;;;;5074253;28;20211;-67
2022/08/21 01:47:34;;;;;;;3.85;3.45;;;16.60;99.90;;;;;;5069702;28;20198;-69
2022/08/21 01:50:05;;;;;;;3.45;3.15;;;16.50;99.90;;;;;;5073411;28;20214;-67
2022/08/21 01:52:35;;;;;;;3.72;3.42;;;16.50;99.90;;;;;;5072118;28;20206;-66
2022/08/21 01:55:05;;;;;;;4.78;3.70;;;16.50;99.90;;;;;;5073663;28;20210;-67
2022/08/21 01:57:34;;;;;;;4.10;3.70;;;16.50;99.90;;;;;;5070331;28;20226;-67
2022/08/21 02:00:05;;;;;;;3.70;3.40;;;16.50;99.90;;;;;;5073372;28;20195;-67
2022/08/21 02:02:40;;;;;;;4.30;3.45;;;16.40;99.90;;;;;;5072018;28;20199;-67
2022/08/21 02:05:11;;;;;;;3.50;3.20;;;16.40;99.90;;;;;;5073724;28;20285;-68
2022/08/21 02:07:44;;;;;;;3.70;3.40;;;16.40;99.90;;;;;;5073234;28;20206;-68
2022/08/21 02:10:15;;;;;;;4.28;3.60;;;16.40;99.90;;;;;;5073717;28;20215;-67
2022/08/21 02:12:44;;;;;;;3.97;3.15;;;16.40;99.90;;;;;;5069104;28;20226;-68
2022/08/21 02:15:13;;;;;;;3.83;3.00;;;16.40;99.90;;;;;;5071582;28;20206;-69
2022/08/21 02:17:44;;;;;;;3.55;3.25;;;16.40;99.90;;;;;;5072875;28;20222;-68
2022/08/21 02:20:37;;;;;;;3.75;3.13;;;16.30;99.90;;;;;;5072609;28;20251;-69
2022/08/21 02:23:10;;;;;;;4.10;3.35;;;16.30;99.90;;;;;;5068754;28;20207;-69
2022/08/21 02:25:39;;;;;;;4.25;3.60;;;16.30;99.90;;;;;;5073342;28;20206;-69
2022/08/21 02:28:16;;;;;;;9.80;4.20;;;16.30;99.90;;;;;;5070507;28;20203;-67
2022/08/21 02:30:48;;;;;;;7.43;3.55;;;16.30;99.90;;;;;;5071155;28;20233;-68
2022/08/21 02:33:17;;;;;;;6.00;4.22;;;16.30;99.90;;;;;;5073055;28;20684;-67
2022/08/21 02:35:47;;;;;;;7.25;3.85;;;16.30;99.90;;;;;;5073034;28;20207;-67
2022/08/21 02:38:20;;;;;;;55.15;5.30;;;16.30;99.90;;;;;;5070845;28;20206;-67
2022/08/21 02:40:51;;;;;;;5.03;3.85;;;16.30;99.90;;;;;;5072263;28;20585;-67
2022/08/21 02:43:22;;;;;;;6.35;3.60;;;16.20;99.90;;;;;;5071158;28;20651;-68
2022/08/21 02:45:52;;;;;;;6.55;3.90;;;16.20;99.90;;;;;;5072908;28;20199;-67
2022/08/21 02:48:23;;;;;;;7.68;3.35;;;16.10;99.90;;;;;;5070962;28;20562;-66
2022/08/21 02:50:54;;;;;;;3.72;3.42;;;16.10;99.90;;;;;;5072470;28;20223;-67
2022/08/21 02:53:25;;;;;;;4.65;3.85;;;16.10;99.90;;;;;;5072776;28;20959;-70
2022/08/21 02:55:55;;;;;;;5.47;3.50;;;16.10;99.90;;;;;;5072483;28;20324;-68
2022/08/21 02:58:27;;;;;;;6.90;4.07;;;16.00;99.90;;;;;;5068555;28;20221;-68
2022/08/21 03:00:58;;;;;;;4.22;3.30;;;16.00;99.90;;;;;;5072273;28;20709;-68
2022/08/21 03:03:27;;;;;;;6.97;3.60;;;16.00;99.90;;;;;;5072595;28;20210;-66
2022/08/21 03:05:56;;;;;;;4.30;3.90;;;15.90;99.90;;;;;;5072287;28;20210;-68
2022/08/21 03:08:26;;;;;;;4.45;3.78;;;15.90;99.90;;;;;;5070771;28;20210;-67
2022/08/21 03:10:55;;;;;;;5.18;3.75;;;15.90;99.90;;;;;;5072199;28;20215;-65
2022/08/21 03:13:24;;;;;;;4.70;3.70;;;15.90;99.90;;;;;;5069288;28;20211;-68
2022/08/21 03:15:52;;;;;;;4.30;3.90;;;15.80;99.90;;;;;;5072283;28;20195;-68
2022/08/21 03:18:21;;;;;;;4.38;3.55;;;15.90;99.90;;;;;;5067693;28;20192;-67
2022/08/21 03:20:51;;;;;;;3.80;3.10;;;15.90;99.90;;;;;;5069732;28;20222;-68
2022/08/21 03:23:19;;;;;;;3.50;3.10;;;15.80;99.90;;;;;;5072348;28;20202;-68
2022/08/21 03:25:50;;;;;;;4.78;3.35;;;15.80;99.90;;;;;;5071981;28;20214;-67
2022/08/21 03:28:23;;;;;;;3.63;3.33;;;15.80;99.90;;;;;;5068095;28;20203;-67
2022/08/21 03:30:52;;;;;;;5.35;3.70;;;15.80;99.90;;;;;;5070723;28;20595;-66
2022/08/21 03:33:21;;;;;;;5.22;3.85;;;15.80;99.90;;;;;;5070505;28;20210;-68
2022/08/21 03:35:58;;;;;;;5.38;4.25;;;15.80;99.90;;;;;;5063739;28;20206;-67
2022/08/21 03:38:28;;;;;;;9.80;4.75;;;15.80;99.90;;;;;;5065857;28;20687;-66
2022/08/21 03:40:59;;;;;;;8.45;4.57;;;15.80;99.90;;;;;;5071273;28;20242;-68
2022/08/21 03:43:28;;;;;;;4.20;3.65;;;15.80;99.90;;;;;;5056578;28;20231;-68
2022/08/21 03:46:01;;;;;;;4.88;3.80;;;15.70;99.90;;;;;;5053688;28;20553;-68
2022/08/21 03:48:30;;;;;;;5.30;4.65;;;15.70;99.90;;;;;;5052339;28;20211;-66
2022/08/21 03:50:59;;;;;;;4.70;4.20;;;15.70;99.90;;;;;;5051370;28;20712;-68
2022/08/21 03:53:28;;;;;;;4.70;3.60;;;15.70;99.90;;;;;;5067471;28;20214;-67
2022/08/21 03:55:58;;;;;;;4.35;3.92;;;15.70;99.90;;;;;;5053256;28;20203;-68
2022/08/21 03:58:29;;;;;;;4.57;3.75;;;15.60;99.90;;;;;;5058279;28;20211;-68
2022/08/21 04:01:00;;;;;;;4.43;3.38;;;15.60;99.90;;;;;;5071904;28;20595;-68
2022/08/21 04:03:29;;;;;;;4.05;3.70;;;15.60;99.90;;;;;;5070095;28;20708;-68
2022/08/21 04:05:58;;;;;;;5.82;3.65;;;15.60;99.90;;;;;;5067529;28;20669;-66
2022/08/21 04:08:27;;;;;;;6.43;4.35;;;15.60;99.90;;;;;;5069472;28;20214;-67
2022/08/21 04:10:59;;;;;;;6.03;4.50;;;15.60;99.90;;;;;;5069272;28;20602;-67
2022/08/21 04:13:28;;;;;;;5.38;4.50;;;15.60;99.90;;;;;;5067287;28;20199;-67
2022/08/21 04:15:58;;;;;;;6.43;4.30;;;15.50;99.90;;;;;;5071475;28;20207;-67
2022/08/21 04:18:27;;;;;;;4.82;4.40;;;15.60;99.90;;;;;;5068156;28;20194;-68
2022/08/21 04:20:58;;;;;;;6.07;4.28;;;15.60;99.90;;;;;;5067932;28;20586;-68
2022/08/21 04:23:27;;;;;;;6.38;4.50;;;15.60;99.90;;;;;;5068745;28;20226;-67
2022/08/21 04:25:59;;;;;;;6.57;4.40;;;15.60;99.90;;;;;;5069312;28;20571;-67
2022/08/21 04:28:28;;;;;;;5.47;4.65;;;15.60;99.90;;;;;;5051841;28;20211;-67
2022/08/21 04:30:59;;;;;;;5.35;4.85;;;15.60;99.90;;;;;;5051129;28;20226;-67
2022/08/21 04:33:28;;;;;;;8.20;5.43;;;15.60;99.90;;;;;;5069798;28;20199;-67
2022/08/21 04:35:56;;;;;;;7.20;4.70;;;15.60;99.90;;;;;;5071387;28;20213;-68
2022/08/21 04:38:26;;;;;;;5.13;4.45;;;15.60;99.90;;;;;;5071342;28;20210;-69
2022/08/21 04:41:06;;;;;;;5.45;4.93;;;15.70;99.90;;;;;;5070368;28;20229;-69
2022/08/21 04:43:35;;;;;;;3.95;3.55;;;15.70;99.90;;;;;;5063987;28;20242;-66
2022/08/21 04:46:04;;;;;;;4.18;3.78;;;15.80;99.90;;;;;;5071695;28;20203;-69
2022/08/21 04:48:33;;;;;;;4.28;3.88;;;15.80;99.90;;;;;;5067944;28;20191;-68
2022/08/21 04:51:07;;;;;;;8.82;4.25;;;15.70;99.90;;;;;;5071758;28;20278;-68
2022/08/21 04:53:38;;;;;;;7.18;4.50;;;15.80;99.90;;;;;;5068138;28;20218;-68
2022/08/21 04:56:13;;;;;;;8.50;5.93;;;15.80;99.90;;;;;;5070243;28;20586;-70
2022/08/21 04:58:42;;;;;;;9.57;5.90;;;15.80;99.90;;;;;;5055213;28;20184;-68
2022/08/21 05:01:22;;;;;;;10.23;5.57;;;15.80;99.90;;;;;;5054978;28;20584;-67
2022/08/21 05:03:55;;;;;;;11.45;5.30;;;15.80;99.90;;;;;;5054468;28;20279;-68
2022/08/21 05:06:25;;;;;;;14.40;6.03;;;15.80;99.90;;;;;;5057350;28;20198;-68
2022/08/21 05:08:56;;;;;;;19.00;6.90;;;15.80;99.90;;;;;;5054975;28;20188;-67
2022/08/21 05:11:32;;;;;;;11.65;7.28;;;15.80;99.90;;;;;;5066215;28;20229;-67
2022/08/21 05:14:00;;;;;;;18.52;8.23;;;15.90;99.90;;;;;;5067099;28;20195;-66
2022/08/21 05:16:29;;;;;;;14.18;8.50;;;15.90;99.90;;;;;;5073798;28;20207;-66
2022/08/21 05:19:06;;;;;;;19.67;9.85;;;15.90;99.90;;;;;;5063260;28;20649;-66
2022/08/21 05:21:35;;;;;;;17.05;10.18;;;15.90;99.90;;;;;;5065215;28;20235;-68
2022/08/21 05:24:04;;;;;;;18.60;8.45;;;16.00;99.90;;;;;;5074614;28;20230;-67
2022/08/21 05:26:36;;;;;;;16.00;8.95;;;16.00;99.90;;;;;;5067983;28;20567;-67
2022/08/21 05:29:15;;;;;;;17.63;12.48;;;16.00;99.90;;;;;;5069344;28;20567;-68
2022/08/21 05:31:47;;;;;;;33.08;10.52;;;16.00;99.90;;;;;;5069255;28;20218;-68
2022/08/21 05:34:20;;;;;;;14.88;10.07;;;16.10;99.90;;;;;;5074441;28;20202;-67
2022/08/21 05:36:49;;;;;;;16.80;9.05;;;16.10;99.90;;;;;;5069052;28;20199;-68
2022/08/21 05:39:17;;;;;;;29.80;10.35;;;16.10;99.90;;;;;;5070568;28;20194;-69
2022/08/21 05:41:49;;;;;;;15.52;9.77;;;16.20;99.90;;;;;;5072726;28;20685;-68
2022/08/21 05:44:17;;;;;;;17.33;11.30;;;16.20;99.90;;;;;;5074163;28;20211;-68
2022/08/21 05:46:48;;;;;;;16.02;10.00;;;16.20;99.90;;;;;;5074124;28;20210;-68
2022/08/21 05:49:17;;;;;;;16.40;10.88;;;16.30;99.90;;;;;;5071823;28;20192;-68
2022/08/21 05:51:46;;;;;;;16.45;12.48;;;16.30;99.90;;;;;;5071430;28;20226;-68
2022/08/21 05:54:14;;;;;;;19.85;15.73;;;16.30;99.90;;;;;;5067991;28;20195;-69
2022/08/21 05:56:44;;;;;;;21.17;16.77;;;16.40;99.90;;;;;;5069906;28;20195;-69
2022/08/21 05:59:14;;;;;;;21.95;16.90;;;16.40;99.90;;;;;;5068669;28;20207;-68
2022/08/21 06:01:43;;;;;;;20.95;16.60;;;16.40;99.90;;;;;;5068581;28;20242;-68
2022/08/21 06:04:12;;;;;;;20.23;16.55;;;16.40;99.90;;;;;;5072325;28;20223;-67
2022/08/21 06:06:40;;;;;;;19.25;16.25;;;16.50;99.90;;;;;;5073542;28;20198;-68
2022/08/21 06:09:09;;;;;;;20.05;16.13;;;16.50;99.90;;;;;;5067413;28;20191;-67
2022/08/21 06:11:38;;;;;;;21.17;16.75;;;16.50;99.90;;;;;;5071166;28;20219;-68
2022/08/21 06:14:07;;;;;;;21.08;17.35;;;16.60;99.90;;;;;;5070468;28;20207;-66
2022/08/21 06:16:37;;;;;;;20.45;15.73;;;16.60;99.90;;;;;;5069758;28;20576;-68
2022/08/21 06:19:06;;;;;;;19.48;15.88;;;16.60;99.90;;;;;;5071455;28;20211;-68
2022/08/21 06:21:34;;;;;;;18.40;15.25;;;16.60;99.90;;;;;;5073451;28;20582;-68
2022/08/21 06:24:04;;;;;;;20.85;17.08;;;16.70;99.90;;;;;;5071078;28;20582;-69
2022/08/21 06:26:33;;;;;;;20.25;17.13;;;16.70;99.90;;;;;;5073146;28;20211;-68
2022/08/21 06:29:02;;;;;;;20.85;15.77;;;16.70;99.90;;;;;;5073286;28;20199;-68
2022/08/21 06:31:31;;;;;;;20.35;16.77;;;16.70;99.90;;;;;;5069394;28;20215;-67
2022/08/21 06:34:03;;;;;;;19.17;16.20;;;16.80;99.90;;;;;;5071829;28;20207;-69
2022/08/21 06:36:31;;;;;;;20.10;16.75;;;16.80;99.90;;;;;;5071817;28;20195;-68
2022/08/21 06:39:00;;;;;;;17.67;15.73;;;16.90;99.90;;;;;;5069931;28;20195;-68
2022/08/21 06:41:43;;;;;;;18.92;16.05;;;16.90;99.90;;;;;;5069212;28;20219;-68
2022/08/21 06:44:13;;;;;;;20.98;16.92;;;17.10;99.90;;;;;;5070577;28;20211;-71
2022/08/21 06:46:43;;;;;;;19.40;16.33;;;17.10;99.90;;;;;;5073524;28;20190;-70
2022/08/21 06:49:17;;;;;;;20.90;18.10;;;17.20;99.90;;;;;;5073504;28;20191;-71
2022/08/21 06:51:49;;;;;;;21.95;17.45;;;17.20;99.90;;;;;;5073350;28;20238;-69
2022/08/21 06:54:17;;;;;;;21.20;18.25;;;17.30;99.90;;;;;;5064928;28;20210;-70
2022/08/21 06:56:46;;;;;;;21.42;17.50;;;17.30;99.90;;;;;;5072802;28;20210;-70
2022/08/21 06:59:15;;;;;;;21.83;18.83;;;17.40;99.90;;;;;;5072877;28;20372;-70
2022/08/21 07:01:44;;;;;;;19.85;17.38;;;17.40;99.90;;;;;;5072740;28;20215;-70
2022/08/21 07:04:13;;;;;;;21.70;18.67;;;17.50;99.90;;;;;;5068611;28;20701;-69
2022/08/21 07:06:43;;;;;;;23.40;17.77;;;17.60;99.90;;;;;;5068601;28;20220;-69
2022/08/21 07:09:11;;;;;;;22.67;18.40;;;17.60;99.90;;;;;;5072237;28;20199;-70
2022/08/21 07:11:40;;;;;;;23.02;18.02;;;17.70;99.90;;;;;;5071499;28;20211;-71
2022/08/21 07:14:15;;;;;;;25.92;18.40;;;17.70;99.90;;;;;;5069798;28;20687;-70
2022/08/21 07:16:48;;;;;;;23.63;17.63;;;17.70;99.90;;;;;;5072058;28;20676;-71
2022/08/21 07:19:17;;;;;;;18.90;15.18;;;17.80;99.90;;;;;;5059533;28;20198;-70
2022/08/21 07:21:47;;;;;;;21.63;17.27;;;17.90;99.90;;;;;;5066713;28;20234;-70
2022/08/21 07:24:16;;;;;;;19.10;16.58;;;17.90;99.90;;;;;;5065923;28;20231;-70
2022/08/21 07:26:45;;;;;;;17.95;15.02;;;18.00;99.90;;;;;;5072454;28;20202;-70
2022/08/21 07:29:14;;;;;;;22.88;18.33;;;18.10;99.90;;;;;;5070077;28;20195;-70
2022/08/21 07:31:43;;;;;;;21.27;16.45;;;18.10;99.90;;;;;;5070727;28;20219;-70
2022/08/21 07:34:12;;;;;;;18.92;16.05;;;18.10;99.90;;;;;;5072668;28;20199;-70
2022/08/21 07:36:40;;;;;;;20.35;17.17;;;18.20;99.90;;;;;;5068595;28;20203;-70
2022/08/21 07:39:10;;;;;;;21.02;17.17;;;18.30;99.90;;;;;;5071193;28;20206;-71
2022/08/21 07:41:39;;;;;;;17.58;15.50;;;18.40;99.90;;;;;;5067864;28;20215;-70
2022/08/21 07:44:08;;;;;;;18.23;15.68;;;18.40;99.90;;;;;;5066755;28;20194;-71
2022/08/21 07:46:40;;;;;;;17.98;14.00;;;18.50;99.90;;;;;;5065927;28;20346;-69
2022/08/21 07:49:08;;;;;;;16.67;14.88;;;18.60;99.90;;;;;;5072816;28;20191;-71
2022/08/21 07:51:37;;;;;;;18.00;14.50;;;18.60;99.90;;;;;;5067020;28;20226;-71
2022/08/21 07:54:06;;;;;;;17.73;14.63;;;18.70;99.90;;;;;;5072812;28;20206;-72
2022/08/21 07:56:36;;;;;;;17.90;15.27;;;18.80;99.90;;;;;;5073200;28;20195;-69
2022/08/21 07:59:04;;;;;;;16.10;14.40;;;18.80;99.90;;;;;;5073156;28;20195;-71
2022/08/21 08:01:33;;;;;;;22.83;16.52;;;18.90;99.90;;;;;;5065598;28;20617;-70
2022/08/21 08:04:03;;;;;;;18.10;16.00;;;18.90;99.90;;;;;;5071672;28;20206;-70
2022/08/21 08:06:31;;;;;;;18.92;15.50;;;19.00;99.90;;;;;;5069130;28;20219;-70
2022/08/21 08:09:02;;;;;;;16.17;14.27;;;19.00;99.90;;;;;;5068183;28;20210;-70
2022/08/21 08:11:31;;;;;;;18.70;14.55;;;19.00;99.90;;;;;;5071873;28;20230;-72
2022/08/21 08:14:03;;;;;;;17.20;14.93;;;19.10;99.90;;;;;;5069862;28;20666;-70
2022/08/21 08:16:32;;;;;;;21.23;18.02;;;19.10;99.90;;;;;;5066102;28;20661;-70
2022/08/21 08:19:00;;;;;;;18.80;15.75;;;19.20;99.90;;;;;;5068631;28;20203;-70
2022/08/21 08:21:29;;;;;;;16.85;14.65;;;19.20;99.90;;;;;;5067181;28;20686;-70
2022/08/21 08:24:00;;;;;;;16.33;14.13;;;19.20;99.90;;;;;;5070456;28;20199;-69
2022/08/21 08:26:47;;;;;;;16.35;14.10;;;19.40;99.90;;;;;;5071777;28;20203;-70
2022/08/21 08:29:23;;;;;;;14.80;13.18;;;19.50;99.90;;;;;;5074034;28;20583;-70
2022/08/21 08:31:51;;;;;;;16.75;13.23;;;19.60;99.90;;;;;;5071131;28;20308;-71
2022/08/21 08:34:22;;;;;;;15.35;12.68;;;19.80;99.90;;;;;;5074100;28;20203;-70
2022/08/21 08:36:53;;;;;;;13.95;12.45;;;19.90;99.90;;;;;;5074086;28;20207;-70
2022/08/21 08:39:22;;;;;;;14.48;12.90;;;20.10;99.90;;;;;;5075516;28;20187;-71
2022/08/21 08:42:04;;;;;;;14.18;12.77;;;20.20;99.90;;;;;;5071953;28;20215;-71
2022/08/21 08:44:59;;;;;;;14.57;12.88;;;20.50;99.90;;;;;;5074272;28;20563;-72
2022/08/21 08:47:32;;;;;;;13.00;11.48;;;20.70;99.90;;;;;;5075582;28;20559;-72
2022/08/21 08:50:04;;;;;;;14.20;11.32;;;21.00;99.90;;;;;;5074705;28;20195;-73
2022/08/21 08:52:36;;;;;;;13.55;10.70;;;21.30;99.90;;;;;;5073351;28;20195;-71
2022/08/21 08:55:09;;;;;;;12.48;11.18;;;21.50;99.90;;;;;;5077101;28;20187;-71
2022/08/21 08:57:43;;;;;;;11.32;10.15;;;21.50;99.90;;;;;;5076868;28;20194;-72
2022/08/21 09:00:21;;;;;;;11.88;10.68;;;21.50;99.90;;;;;;5072894;28;20223;-74
2022/08/21 09:02:53;;;;;;;11.98;10.43;;;21.60;99.90;;;;;;5075419;28;20582;-72
2022/08/21 09:05:25;;;;;;;11.88;10.60;;;21.70;99.90;;;;;;5074996;28;20211;-71
2022/08/21 09:08:35;;;;;;;12.52;11.23;;;21.70;99.90;;;;;;5070874;28;20206;-72
2022/08/21 09:11:10;;;;;;;11.73;10.45;;;21.90;99.90;;;;;;5070287;28;20227;-73
2022/08/21 09:13:50;;;;;;;12.23;10.43;;;21.90;99.90;;;;;;5073322;28;20186;-72
2022/08/21 09:16:32;;;;;;;12.02;10.75;;;21.90;99.90;;;;;;5073257;28;20222;-72
2022/08/21 09:19:09;;;;;;;11.10;9.68;;;22.00;99.90;;;;;;5077264;28;20642;-71
2022/08/21 09:21:48;;;;;;;10.80;9.73;;;22.30;99.90;;;;;;5074668;28;20233;-72
2022/08/21 09:24:31;;;;;;;10.75;9.65;;;22.60;99.90;;;;;;5069138;28;20195;-74
2022/08/21 09:27:05;;;;;;;10.63;9.35;;;22.70;99.90;;;;;;5076851;28;20549;-73
2022/08/21 09:29:37;;;;;;;10.95;9.75;;;23.10;99.90;;;;;;5076850;28;20189;-72
2022/08/21 09:32:16;;;;;;;9.88;8.88;;;23.40;99.90;;;;;;5075092;28;20222;-72
2022/08/21 09:34:58;;;;;;;12.10;10.80;;;23.50;99.90;;;;;;5075139;28;20198;-71
2022/08/21 09:37:29;;;;;;;10.07;9.15;;;23.60;99.90;;;;;;5073553;28;20198;-72
2022/08/21 09:39:59;;;;;;;10.45;8.73;;;23.60;99.90;;;;;;5073744;28;20567;-72
2022/08/21 09:42:32;;;;;;;9.98;8.98;;;23.50;99.90;;;;;;5075239;28;21058;-71
2022/08/21 09:45:13;;;;;;;8.38;7.57;;;23.50;99.90;;;;;;5076108;28;20199;-73
2022/08/21 09:47:45;;;;;;;9.43;8.43;;;23.50;99.90;;;;;;5072666;28;20703;-73
2022/08/21 09:50:16;;;;;;;7.93;7.13;;;23.40;99.90;;;;;;5058848;28;20224;-72
2022/08/21 09:52:48;;;;;;;8.15;7.35;;;23.40;99.90;;;;;;5061482;28;20202;-73
2022/08/21 09:58:32;;;;;;;8.95;7.72;;;23.60;99.90;;;;;;5055037;28;20210;-73
2022/08/21 10:01:03;;;;;;;8.27;7.40;;;23.70;99.90;;;;;;5074108;28;20222;-73
2022/08/21 10:03:34;;;;;;;7.70;7.00;;;23.80;99.90;;;;;;5075423;28;20187;-74
2022/08/21 10:06:08;;;;;;;8.95;8.05;;;23.90;99.90;;;;;;5072915;28;20229;-73
2022/08/21 10:08:39;;;;;;;7.60;6.90;;;24.00;99.90;;;;;;5071221;28;20191;-73
2022/08/21 10:11:12;;;;;;;7.20;6.50;;;24.00;99.90;;;;;;5073832;28;20222;-73
2022/08/21 10:13:51;;;;;;;8.98;6.57;;;24.00;99.90;;;;;;5074263;28;20662;-74
2022/08/21 10:16:31;;;;;;;6.22;5.63;;;24.20;99.90;;;;;;5070691;28;20218;-75
2022/08/21 10:19:16;;;;;;;7.35;6.65;;;24.40;99.90;;;;;;5074518;28;20187;-73
2022/08/21 10:22:03;;;;;;;7.50;6.75;;;24.50;99.90;;;;;;5074286;28;20226;-73
2022/08/21 10:24:35;;;;;;;7.03;6.32;;;24.50;99.90;;;;;;5068435;28;20669;-73
2022/08/21 10:27:15;;;;;;;7.70;6.70;;;24.80;99.90;;;;;;5072296;28;20708;-74
2022/08/21 10:29:52;;;;;;;6.75;6.10;;;24.80;99.90;;;;;;5071805;28;20203;-73
2022/08/21 10:32:32;;;;;;;7.55;5.82;;;24.90;99.90;;;;;;5072459;28;20191;-73
2022/08/21 10:35:12;;;;;;;7.20;6.50;;;25.00;99.90;;;;;;5053383;28;20601;-73
2022/08/21 10:37:59;;;;;;;6.53;5.93;;;25.50;99.90;;;;;;5054755;28;20191;-73
2022/08/21 10:40:32;;;;;;;5.95;5.35;;;25.40;99.90;;;;;;5068307;28;20227;-73
2022/08/21 10:43:16;;;;;;;6.25;5.65;;;25.60;99.90;;;;;;5071328;28;20653;-72
2022/08/21 10:45:54;;;;;;;7.43;6.72;;;25.50;99.80;;;;;;5073159;28;20186;-74
2022/08/21 10:48:36;;;;;;;6.82;6.18;;;25.70;99.00;;;;;;5070711;28;20590;-73
2022/08/21 10:51:13;;;;;;;6.85;6.07;;;25.60;99.90;;;;;;5071707;28;20219;-73
2022/08/21 10:54:02;;;;;;;6.75;5.93;;;25.40;99.90;;;;;;5063370;28;20199;-74
2022/08/21 10:56:32;;;;;;;5.50;5.00;;;25.10;99.90;;;;;;5053589;28;20195;-73
2022/08/21 10:59:25;;;;;;;4.95;4.43;;;25.00;99.90;;;;;;5052927;28;20188;-74
2022/08/21 11:02:01;;;;;;;5.60;5.07;;;25.00;99.30;;;;;;5052882;28;20218;-75
2022/08/21 11:04:36;;;;;;;6.25;5.60;;;25.40;99.90;;;;;;5055403;28;20559;-74
2022/08/21 11:07:23;;;;;;;6.20;4.88;;;25.60;99.90;;;;;;5072924;28;20352;-76
2022/08/21 11:09:57;;;;;;;5.90;4.70;;;25.80;98.80;;;;;;5069304;28;20202;-72
2022/08/21 11:12:35;;;;;;;4.78;4.28;;;25.90;97.70;;;;;;5072686;28;20194;-72
2022/08/21 11:15:12;;;;;;;4.65;4.25;;;25.70;98.70;;;;;;5072709;28;20547;-74
2022/08/21 11:18:07;;;;;;;4.40;4.00;;;25.60;97.50;;;;;;5068377;28;20207;-72
2022/08/21 11:20:43;;;;;;;4.85;4.20;;;25.40;96.20;;;;;;5068400;28;20227;-71
2022/08/21 11:23:21;;;;;;;5.03;4.20;;;25.30;97.20;;;;;;5058823;28;20202;-73
2022/08/21 11:25:54;;;;;;;4.22;3.92;;;25.30;97.90;;;;;;5067222;28;20203;-73
2022/08/21 11:28:27;;;;;;;4.15;3.75;;;25.40;98.70;;;;;;5072379;28;20238;-75
2022/08/21 11:31:06;;;;;;;4.10;3.70;;;25.50;97.80;;;;;;5070559;28;20222;-74
2022/08/21 11:33:51;;;;;;;5.05;4.10;;;25.60;96.80;;;;;;5072558;28;20179;-75
2022/08/21 11:36:30;;;;;;;4.35;3.95;;;26.00;95.40;;;;;;5071682;28;20187;-75
2022/08/21 11:39:08;;;;;;;4.20;3.80;;;26.20;93.40;;;;;;5068156;28;20657;-75
2022/08/21 11:41:41;;;;;;;4.13;3.50;;;26.80;92.00;;;;;;5072659;28;20219;-75
2022/08/21 11:44:19;;;;;;;4.20;3.80;;;27.10;91.40;;;;;;5070729;28;20200;-75
2022/08/21 11:46:53;;;;;;;5.47;4.00;;;27.50;90.00;;;;;;5070205;28;20198;-75
2022/08/21 11:49:43;;;;;;;5.97;4.72;;;27.80;89.80;;;;;;5072395;28;20657;-75
2022/08/21 11:52:19;;;;;;;4.55;3.92;;;28.00;91.70;;;;;;5070746;28;20684;-74
2022/08/21 11:54:53;;;;;;;4.55;3.95;;;28.10;91.60;;;;;;5069129;28;20206;-78
2022/08/21 11:57:26;;;;;;;4.45;4.05;;;27.90;89.10;;;;;;5072895;28;20532;-76
2022/08/21 12:00:00;;;;;;;4.20;3.80;;;27.70;92.50;;;;;;5072587;28;20190;-74
2022/08/21 12:02:34;;;;;;;4.45;4.00;;;27.60;91.50;;;;;;5071379;28;20213;-76
2022/08/21 12:05:07;;;;;;;3.75;3.45;;;27.40;91.90;;;;;;5056855;28;20198;-74
2022/08/21 12:07:39;;;;;;;4.18;3.70;;;27.20;91.20;;;;;;5056985;28;20290;-74
2022/08/21 12:10:12;;;;;;;4.30;3.90;;;26.90;90.50;;;;;;5073266;28;20203;-74
2022/08/21 12:12:43;;;;;;;3.95;3.53;;;26.80;88.00;;;;;;5074734;28;20206;-73
2022/08/21 12:15:25;;;;;;;5.10;4.25;;;26.60;90.60;;;;;;5076970;28;20177;-73
2022/08/21 12:17:57;;;;;;;4.60;4.18;;;26.30;92.50;;;;;;5077230;28;20199;-73
2022/08/21 12:20:43;;;;;;;6.10;4.57;;;26.00;93.50;;;;;;5059079;28;20222;-73
2022/08/21 12:23:26;;;;;;;3.85;3.55;;;25.70;92.60;;;;;;5060019;28;20215;-73
2022/08/21 12:26:14;;;;;;;4.43;4.03;;;25.50;91.50;;;;;;5075808;28;20183;-75
2022/08/21 12:28:43;;;;;;;4.40;4.00;;;25.70;93.50;;;;;;5075740;28;20233;-75
2022/08/21 12:31:20;;;;;;;5.22;4.53;;;26.00;92.40;;;;;;5071025;28;20226;-74
2022/08/21 12:33:55;;;;;;;4.88;4.07;;;26.10;94.90;;;;;;5070452;28;20190;-73
2022/08/21 12:36:28;;;;;;;4.80;4.30;;;26.20;94.10;;;;;;5075609;28;20190;-72
2022/08/21 12:39:00;;;;;;;5.00;4.50;;;26.40;93.60;;;;;;5069545;28;20263;-75
2022/08/21 12:41:42;;;;;;;3.80;3.50;;;26.30;93.90;;;;;;5073933;28;20747;-75
2022/08/21 12:44:16;;;;;;;4.18;3.78;;;26.50;91.40;;;;;;5073655;28;20217;-74
2022/08/21 12:46:49;;;;;;;3.97;3.55;;;26.90;90.60;;;;;;5071684;28;20192;-73
2022/08/21 12:49:24;;;;;;;4.45;3.90;;;27.00;87.80;;;;;;5074342;28;20219;-75
2022/08/21 12:51:57;;;;;;;3.67;3.00;;;27.40;90.00;;;;;;5075531;28;20215;-75
2022/08/21 12:54:29;;;;;;;3.90;3.50;;;27.60;83.80;;;;;;5071425;28;20649;-74
2022/08/21 12:57:02;;;;;;;3.95;3.38;;;27.80;84.80;;;;;;5073868;28;20203;-76
2022/08/21 12:59:32;;;;;;;3.60;3.30;;;28.00;88.20;;;;;;5075276;28;20188;-74
2022/08/21 13:02:10;;;;;;;3.97;3.58;;;28.00;89.60;;;;;;5075336;28;20701;-75
2022/08/21 13:04:42;;;;;;;4.03;3.53;;;28.00;87.00;;;;;;5071407;28;20191;-73
2022/08/21 13:07:14;;;;;;;4.28;3.88;;;27.90;82.30;;;;;;5075061;28;20524;-73
2022/08/21 13:09:48;;;;;;;4.80;4.30;;;27.80;84.10;;;;;;5069006;28;20211;-75
2022/08/21 13:12:20;;;;;;;4.53;4.13;;;27.60;86.90;;;;;;5071036;28;20226;-74